createdAt,value
2018-12-09T00:00:04.671Z,0.50
2018-12-09T00:02:44.268Z,0.60
2018-12-09T00:05:17.438Z,0.50
2018-12-09T00:07:46.824Z,0.70
2018-12-09T00:10:20.792Z,0.80
2018-12-09T00:12:54.818Z,0.60
2018-12-09T00:15:41.347Z,0.40
2018-12-09T00:18:12.627Z,0.80
2018-12-09T00:20:43.670Z,0.40
2018-12-09T00:23:19.137Z,0.40
2018-12-09T00:25:55.804Z,0.50
2018-12-09T00:28:29.813Z,0.60
2018-12-09T00:31:01.387Z,0.40
2018-12-09T00:33:39.518Z,0.40
2018-12-09T00:36:10.678Z,0.40
2018-12-09T00:38:43.819Z,0.40
2018-12-09T00:41:15.224Z,0.60
2018-12-09T00:43:49.295Z,1.13
2018-12-09T00:46:23.009Z,0.40
2018-12-09T00:48:56.628Z,0.43
2018-12-09T00:51:24.269Z,0.40
2018-12-09T00:53:51.959Z,0.40
2018-12-09T00:56:23.360Z,0.40
2018-12-09T00:58:56.737Z,0.40
2018-12-09T01:01:31.441Z,0.40
2018-12-09T01:04:09.549Z,0.30
2018-12-09T01:06:37.327Z,0.50
2018-12-09T01:09:05.581Z,0.40
2018-12-09T01:11:37.874Z,0.40
2018-12-09T01:14:11.851Z,0.50
2018-12-09T01:16:43.055Z,0.40
2018-12-09T01:19:20.657Z,0.30
2018-12-09T01:21:52.014Z,0.60
2018-12-09T01:24:19.884Z,0.50
2018-12-09T01:26:47.839Z,0.40
2018-12-09T01:29:25.878Z,0.40
2018-12-09T01:34:58.424Z,0.30
2018-12-09T01:37:26.280Z,0.40
2018-12-09T01:39:57.653Z,0.40
2018-12-09T01:45:35.448Z,0.30
2018-12-09T01:48:09.187Z,0.50
2018-12-09T01:50:42.666Z,0.60
2018-12-09T01:53:25.502Z,0.53
2018-12-09T01:55:57.085Z,0.40
2018-12-09T01:58:24.850Z,0.43
2018-12-09T02:00:53.020Z,0.60
2018-12-09T02:03:29.086Z,0.80
2018-12-09T02:06:07.073Z,0.60
2018-12-09T02:08:40.764Z,0.60
2018-12-09T02:11:18.299Z,0.60
2018-12-09T02:13:53.473Z,0.83
2018-12-09T02:16:27.417Z,0.97
2018-12-09T02:19:29.126Z,1.00
2018-12-09T02:22:00.272Z,0.80
2018-12-09T02:24:34.006Z,1.03
2018-12-09T02:27:08.799Z,0.80
2018-12-09T02:32:42.806Z,0.87
2018-12-09T02:35:13.762Z,0.90
2018-12-09T02:37:45.542Z,2.43
2018-12-09T02:40:16.452Z,1.57
2018-12-09T02:42:51.431Z,1.10
2018-12-09T02:45:22.678Z,1.07
2018-12-09T02:47:50.424Z,1.43
2018-12-09T02:50:23.994Z,1.33
2018-12-09T02:52:55.424Z,1.60
2018-12-09T02:55:23.185Z,0.97
2018-12-09T02:58:07.402Z,0.80
2018-12-09T03:00:39.214Z,0.70
2018-12-09T03:03:10.427Z,0.50
2018-12-09T03:05:43.625Z,0.50
2018-12-09T03:08:14.821Z,0.87
2018-12-09T03:10:45.728Z,0.57
2018-12-09T03:13:19.781Z,0.50
2018-12-09T03:15:57.441Z,0.60
2018-12-09T03:18:32.280Z,0.70
2018-12-09T03:21:05.953Z,0.40
2018-12-09T03:23:40.688Z,0.57
2018-12-09T03:26:14.163Z,0.40
2018-12-09T03:28:47.687Z,0.40
2018-12-09T03:31:15.523Z,0.50
2018-12-09T03:33:55.434Z,0.47
2018-12-09T03:36:26.166Z,0.50
2018-12-09T03:38:53.832Z,0.40
2018-12-09T03:41:26.922Z,0.60
2018-12-09T03:43:54.745Z,1.10
2018-12-09T03:46:22.691Z,0.50
2018-12-09T03:48:56.554Z,0.30
2018-12-09T03:51:24.487Z,1.23
2018-12-09T03:53:52.167Z,0.50
2018-12-09T03:56:19.977Z,0.57
2018-12-09T03:58:47.587Z,0.50
2018-12-09T04:01:18.750Z,0.57
2018-12-09T04:03:46.598Z,0.93
2018-12-09T04:06:21.336Z,0.50
2018-12-09T04:08:50.900Z,1.57
2018-12-09T04:11:18.710Z,0.60
2018-12-09T04:13:51.098Z,1.97
2018-12-09T04:16:22.958Z,0.70
2018-12-09T04:18:50.668Z,0.80
2018-12-09T04:21:23.982Z,0.60
2018-12-09T04:24:06.048Z,0.80
2018-12-09T04:26:36.926Z,1.20
2018-12-09T04:29:06.612Z,1.13
2018-12-09T04:31:38.211Z,1.00
2018-12-09T04:34:12.439Z,1.00
2018-12-09T04:36:45.892Z,1.40
2018-12-09T04:39:17.437Z,1.60
2018-12-09T04:41:48.985Z,0.93
2018-12-09T04:44:16.669Z,0.90
2018-12-09T04:46:44.425Z,0.80
2018-12-09T04:49:17.871Z,1.00
2018-12-09T04:54:14.542Z,0.90
2018-12-09T04:56:49.627Z,1.30
2018-12-09T04:59:21.913Z,0.70
2018-12-09T05:01:55.037Z,2.63
2018-12-09T05:04:26.471Z,0.83
2018-12-09T05:06:58.256Z,0.97
2018-12-09T05:09:26.014Z,1.10
2018-12-09T05:11:59.769Z,1.10
2018-12-09T05:14:27.457Z,1.10
2018-12-09T05:17:01.099Z,0.60
2018-12-09T05:19:28.806Z,1.47
2018-12-09T05:21:59.887Z,0.77
2018-12-09T05:24:34.955Z,0.60
2018-12-09T05:27:10.531Z,0.70
2018-12-09T05:29:41.738Z,1.00
2018-12-09T05:32:15.795Z,1.20
2018-12-09T05:34:49.678Z,1.10
2018-12-09T05:37:19.157Z,1.27
2018-12-09T05:39:53.740Z,0.90
2018-12-09T05:42:21.395Z,0.87
2018-12-09T05:44:54.907Z,0.77
2018-12-09T05:47:24.198Z,0.83
2018-12-09T05:49:52.260Z,0.90
2018-12-09T05:54:58.282Z,1.37
2018-12-09T05:57:31.920Z,0.80
2018-12-09T05:59:59.998Z,0.80
2018-12-09T06:02:42.416Z,0.80
2018-12-09T06:05:18.224Z,1.60
2018-12-09T06:07:47.729Z,1.20
2018-12-09T06:10:20.851Z,1.33
2018-12-09T06:12:52.150Z,1.10
2018-12-09T06:15:19.951Z,1.20
2018-12-09T06:17:53.932Z,1.20
2018-12-09T06:20:21.806Z,0.97
2018-12-09T06:22:49.431Z,1.40
2018-12-09T06:25:17.136Z,1.23
2018-12-09T06:27:44.764Z,1.40
2018-12-09T06:30:20.775Z,1.47
2018-12-09T06:33:13.244Z,1.87
2018-12-09T06:35:41.260Z,1.67
2018-12-09T06:38:20.676Z,1.30
2018-12-09T06:40:54.404Z,1.17
2018-12-09T06:43:27.698Z,1.60
2018-12-09T06:45:55.947Z,1.93
2018-12-09T06:48:29.740Z,1.80
2018-12-09T06:51:01.067Z,1.47
2018-12-09T06:53:28.923Z,1.50
2018-12-09T06:56:00.400Z,1.70
2018-12-09T06:58:28.442Z,1.40
2018-12-09T07:00:56.130Z,1.73
2018-12-09T07:03:29.538Z,1.50
2018-12-09T07:06:03.486Z,1.70
2018-12-09T07:08:40.971Z,2.67
2018-12-09T07:11:08.700Z,1.80
2018-12-09T07:13:36.383Z,2.67
2018-12-09T07:16:07.294Z,1.80
2018-12-09T07:18:35.351Z,1.40
2018-12-09T07:21:04.415Z,1.50
2018-12-09T07:23:37.538Z,2.17
2018-12-09T07:26:06.125Z,2.03
2018-12-09T07:28:33.811Z,1.60
2018-12-09T07:31:01.559Z,1.73
2018-12-09T07:33:29.254Z,1.80
2018-12-09T07:35:56.890Z,1.40
2018-12-09T07:38:24.554Z,2.97
2018-12-09T07:40:54.233Z,2.00
2018-12-09T07:43:22.025Z,1.10
2018-12-09T07:45:49.749Z,1.27
2018-12-09T07:48:17.423Z,1.60
2018-12-09T07:50:45.259Z,1.70
2018-12-09T07:53:13.013Z,1.50
2018-12-09T07:55:46.261Z,1.27
2018-12-09T07:58:20.110Z,1.47
2018-12-09T08:00:47.990Z,1.83
2018-12-09T08:03:15.943Z,1.63
2018-12-09T08:05:44.771Z,1.50
2018-12-09T08:08:12.505Z,1.77
2018-12-09T08:10:40.311Z,2.17
2018-12-09T08:13:08.004Z,1.73
2018-12-09T08:15:35.717Z,1.50
2018-12-09T08:18:03.409Z,2.10
2018-12-09T08:20:31.009Z,1.60
2018-12-09T08:22:58.695Z,1.73
2018-12-09T08:25:26.425Z,1.80
2018-12-09T08:27:54.312Z,1.90
2018-12-09T08:30:22.081Z,1.67
2018-12-09T08:32:49.889Z,3.20
2018-12-09T08:35:18.256Z,2.00
2018-12-09T08:37:45.999Z,2.20
2018-12-09T08:40:13.672Z,1.90
2018-12-09T08:42:41.484Z,1.97
2018-12-09T08:45:10.228Z,2.50
2018-12-09T08:47:37.897Z,1.80
2018-12-09T08:50:06.130Z,2.37
2018-12-09T08:52:33.908Z,1.90
2018-12-09T08:55:01.663Z,2.57
2018-12-09T08:57:29.431Z,2.03
2018-12-09T08:59:57.176Z,2.57
2018-12-09T09:02:24.891Z,2.93
2018-12-09T09:04:52.840Z,4.10
2018-12-09T09:07:20.519Z,2.13
2018-12-09T09:09:48.339Z,2.30
2018-12-09T09:12:16.058Z,2.70
2018-12-09T09:14:43.763Z,2.30
2018-12-09T09:17:11.582Z,2.80
2018-12-09T09:19:39.341Z,2.57
2018-12-09T09:22:07.179Z,2.47
2018-12-09T09:24:34.811Z,2.67
2018-12-09T09:27:02.661Z,2.07
2018-12-09T09:29:30.309Z,2.30
2018-12-09T09:31:58.061Z,2.73
2018-12-09T09:34:25.757Z,2.50
2018-12-09T09:36:53.468Z,3.73
2018-12-09T09:39:21.243Z,3.93
2018-12-09T09:41:49.234Z,3.13
2018-12-09T09:44:21.227Z,3.30
2018-12-09T09:46:49.204Z,3.17
2018-12-09T09:49:17.028Z,3.07
2018-12-09T09:51:44.943Z,2.90
2018-12-09T09:54:12.651Z,2.63
2018-12-09T09:56:40.446Z,3.40
2018-12-09T09:59:08.231Z,2.20
2018-12-09T10:01:36.006Z,2.37
2018-12-09T10:04:05.103Z,2.37
2018-12-09T10:06:33.075Z,2.80
2018-12-09T10:09:01.819Z,3.60
2018-12-09T10:11:29.630Z,3.37
2018-12-09T10:14:11.901Z,2.90
2018-12-09T10:16:40.430Z,3.20
2018-12-09T10:19:09.480Z,3.10
2018-12-09T10:21:43.824Z,2.97
2018-12-09T10:24:34.696Z,3.20
2018-12-09T10:27:15.178Z,3.13
2018-12-09T10:38:41.240Z,4.00
2018-12-09T10:47:21.572Z,3.13
2018-12-09T10:58:48.081Z,2.63
2018-12-09T11:40:40.982Z,2.63
2018-12-09T11:43:26.321Z,2.00
2018-12-09T12:28:44.973Z,2.67
2018-12-09T12:31:20.905Z,3.07
2018-12-09T12:37:10.027Z,2.57
2018-12-09T12:39:46.504Z,5.30
2018-12-09T12:42:29.211Z,3.97
2018-12-09T12:48:13.480Z,2.10
2018-12-09T12:50:53.919Z,3.70
2018-12-09T12:53:27.984Z,3.07
2018-12-09T12:55:55.981Z,3.30
2018-12-09T13:01:41.505Z,3.37
2018-12-09T13:04:15.311Z,2.97
2018-12-09T13:06:48.175Z,2.53
2018-12-09T13:09:28.677Z,3.27
2018-12-09T13:11:56.669Z,2.40
2018-12-09T13:14:33.417Z,2.77
2018-12-09T13:17:04.867Z,2.80
2018-12-09T13:19:36.145Z,3.03
2018-12-09T13:25:08.999Z,2.30
2018-12-09T13:27:49.899Z,1.67
2018-12-09T13:36:21.767Z,1.90
2018-12-09T13:38:57.135Z,1.00
2018-12-09T13:41:37.680Z,0.90
2018-12-09T13:44:07.211Z,0.70
2018-12-09T13:46:43.240Z,1.07
2018-12-09T13:51:55.788Z,2.33
2018-12-09T13:54:27.525Z,0.97
2018-12-09T13:57:58.663Z,0.87
2018-12-09T14:18:53.137Z,1.07
2018-12-09T14:21:33.326Z,0.90
2018-12-09T14:26:58.222Z,1.37
2018-12-09T14:29:33.379Z,1.53
2018-12-09T14:34:45.935Z,1.30
2018-12-09T14:37:14.430Z,1.23
2018-12-09T14:39:56.820Z,1.30
2018-12-09T14:42:30.270Z,1.73
2018-12-09T14:45:10.261Z,1.50
2018-12-09T14:47:42.321Z,1.20
2018-12-09T14:50:17.398Z,1.30
2018-12-09T14:52:48.784Z,2.30
2018-12-09T14:55:25.832Z,1.37
2018-12-09T14:57:57.602Z,1.73
2018-12-09T15:00:33.460Z,1.20
2018-12-09T15:03:12.887Z,1.13
2018-12-09T15:08:52.782Z,1.07
2018-12-09T15:11:36.245Z,1.27
2018-12-09T15:14:12.032Z,1.37
2018-12-09T15:16:43.818Z,1.57
2018-12-09T15:19:21.483Z,1.50
2018-12-09T15:22:09.109Z,1.50
2018-12-09T15:50:45.172Z,1.03
2018-12-09T15:53:18.751Z,1.20
2018-12-09T15:58:57.595Z,1.80
2018-12-09T16:01:31.515Z,1.90
2018-12-09T16:04:07.257Z,1.70
2018-12-09T16:06:42.075Z,2.00
2018-12-09T16:11:55.803Z,1.80
2018-12-09T16:14:42.226Z,1.50
2018-12-09T16:17:26.391Z,1.70
2018-12-09T16:20:08.031Z,1.93
2018-12-09T16:22:39.135Z,3.10
2018-12-09T16:27:53.438Z,1.70
2018-12-09T16:30:31.197Z,1.63
2018-12-09T16:35:55.565Z,2.07
2018-12-09T16:38:39.379Z,2.50
2018-12-09T16:41:12.756Z,1.77
2018-12-09T16:43:46.870Z,2.07
2018-12-09T16:46:20.516Z,2.13
2018-12-09T16:48:56.379Z,2.13
2018-12-09T16:51:36.671Z,2.40
2018-12-09T16:54:07.443Z,1.73
2018-12-09T16:56:47.104Z,2.67
2018-12-09T16:59:20.535Z,1.97
2018-12-09T17:01:54.517Z,1.73
2018-12-09T17:04:32.145Z,2.20
2018-12-09T17:07:09.737Z,1.50
2018-12-09T17:09:43.284Z,2.50
2018-12-09T17:12:17.251Z,3.17
2018-12-09T17:14:52.094Z,2.17
2018-12-09T17:17:34.337Z,3.00
2018-12-09T17:20:14.018Z,3.60
2018-12-09T17:22:52.995Z,3.13
2018-12-09T17:25:28.887Z,2.40
2018-12-09T17:28:06.591Z,2.10
2018-12-09T17:30:37.787Z,2.17
2018-12-09T17:33:11.966Z,1.90
2018-12-09T17:35:45.930Z,1.90
2018-12-09T17:38:13.791Z,2.27
2018-12-09T17:40:45.252Z,2.70
2018-12-09T17:43:19.302Z,1.53
2018-12-09T17:45:49.343Z,2.07
2018-12-09T17:48:26.608Z,2.30
2018-12-09T17:51:00.209Z,2.40
2018-12-09T17:53:31.824Z,1.97
2018-12-09T17:56:11.452Z,1.70
2018-12-09T17:58:40.527Z,1.70
2018-12-09T18:01:17.007Z,1.80
2018-12-09T18:03:50.276Z,1.63
2018-12-09T18:06:24.023Z,2.30
2018-12-09T18:08:58.697Z,2.57
2018-12-09T18:11:34.749Z,2.17
2018-12-09T18:14:05.958Z,2.17
2018-12-09T18:16:40.173Z,2.63
2018-12-09T18:19:13.839Z,2.40
2018-12-09T18:21:45.538Z,2.50
2018-12-09T18:24:16.931Z,2.43
2018-12-09T18:26:50.280Z,3.27
2018-12-09T18:29:24.006Z,2.80
2018-12-09T18:31:58.341Z,3.23
2018-12-09T18:34:42.081Z,2.27
2018-12-09T18:37:21.923Z,2.33
2018-12-09T18:40:04.403Z,2.80
2018-12-09T18:42:38.141Z,2.70
2018-12-09T18:45:13.328Z,3.00
2018-12-09T18:47:51.226Z,3.30
2018-12-09T18:50:24.829Z,3.40
2018-12-09T18:52:58.645Z,2.40
2018-12-09T18:57:54.719Z,3.73
2018-12-09T19:00:28.271Z,4.27
2018-12-09T19:02:57.173Z,8.13
2018-12-09T19:05:31.138Z,4.30
2018-12-09T19:08:04.665Z,4.07
2018-12-09T19:10:40.760Z,2.00
2018-12-09T19:13:16.937Z,1.90
2018-12-09T19:15:54.670Z,1.70
2018-12-09T19:18:26.467Z,2.43
2018-12-09T19:20:57.343Z,1.37
2018-12-09T19:23:30.569Z,1.53
2018-12-09T19:26:04.391Z,1.60
2018-12-09T19:28:37.984Z,1.80
2018-12-09T19:31:11.866Z,1.90
2018-12-09T19:33:43.511Z,1.50
2018-12-09T19:39:16.581Z,1.50
2018-12-09T19:42:00.815Z,1.20
2018-12-09T19:44:36.137Z,1.30
2018-12-09T19:47:12.859Z,1.07
2018-12-09T19:49:58.694Z,1.10
2018-12-09T19:52:33.065Z,1.43
2018-12-09T19:55:17.123Z,1.80
2018-12-09T19:57:55.371Z,1.70
2018-12-09T20:00:36.151Z,1.07
2018-12-09T20:03:16.974Z,1.10
2018-12-09T20:05:51.706Z,0.83
2018-12-09T20:08:24.991Z,1.07
2018-12-09T20:10:59.781Z,1.20
2018-12-09T20:13:39.973Z,1.27
2018-12-09T20:16:14.074Z,0.90
2018-12-09T20:18:55.386Z,1.23
2018-12-09T20:21:29.472Z,1.60
2018-12-09T20:24:14.407Z,2.33
2018-12-09T20:26:47.937Z,1.80
2018-12-09T20:29:22.567Z,1.63
2018-12-09T20:31:55.974Z,1.43
2018-12-09T20:34:38.037Z,1.40
2018-12-09T20:37:24.281Z,1.90
2018-12-09T20:40:04.891Z,1.50
2018-12-09T20:42:38.997Z,1.40
2018-12-09T20:45:21.893Z,1.90
2018-12-09T20:48:01.729Z,2.23
2018-12-09T20:50:38.214Z,1.97
2018-12-09T20:53:11.677Z,2.53
2018-12-09T20:55:48.206Z,2.30
2018-12-09T20:58:19.040Z,1.83
2018-12-09T21:00:49.845Z,2.20
2018-12-09T21:03:23.882Z,2.23
2018-12-09T21:05:58.768Z,2.00
2018-12-09T21:08:32.204Z,3.17
2018-12-09T21:11:03.712Z,1.93
2018-12-09T21:13:36.972Z,1.80
2018-12-09T21:16:06.295Z,1.50
2018-12-09T21:18:37.282Z,1.93
2018-12-09T21:21:11.411Z,2.00
2018-12-09T21:23:50.475Z,1.80
2018-12-09T21:29:13.937Z,2.00
2018-12-09T21:31:44.773Z,2.13
2018-12-09T21:34:13.551Z,2.00
2018-12-09T21:36:47.619Z,1.90
2018-12-09T21:42:04.596Z,1.80
2018-12-09T21:44:36.450Z,2.00
2018-12-09T21:47:08.105Z,1.83
2018-12-09T21:49:45.191Z,1.80
2018-12-09T21:52:16.366Z,1.90
2018-12-09T21:54:54.350Z,1.53
2018-12-09T21:57:30.626Z,1.90
2018-12-09T22:00:17.965Z,2.13
2018-12-09T22:02:52.788Z,1.67
2018-12-09T22:05:24.243Z,1.60
2018-12-09T22:08:01.554Z,1.30
2018-12-09T22:10:35.316Z,1.90
2018-12-09T22:13:06.612Z,1.70
2018-12-09T22:15:40.355Z,1.90
2018-12-09T22:18:11.831Z,1.20
2018-12-09T22:20:42.663Z,1.20
2018-12-09T22:23:15.897Z,1.23
2018-12-09T22:25:51.572Z,1.40
2018-12-09T22:28:30.247Z,1.67
2018-12-09T22:31:04.609Z,1.60
2018-12-09T22:33:48.212Z,1.70
2018-12-09T22:42:37.325Z,1.80
2018-12-09T22:48:17.863Z,1.40
2018-12-09T22:56:38.590Z,1.70
2018-12-09T22:59:18.496Z,1.40
2018-12-09T23:02:07.327Z,1.47
2018-12-09T23:04:44.628Z,1.40
2018-12-09T23:07:23.431Z,2.27
2018-12-09T23:09:58.855Z,1.70
2018-12-09T23:12:39.076Z,1.47
2018-12-09T23:15:19.691Z,1.70
2018-12-09T23:17:59.527Z,1.80
2018-12-09T23:35:19.835Z,1.10
2018-12-09T23:38:06.270Z,1.20
2018-12-09T23:40:45.446Z,1.20
2018-12-09T23:43:25.007Z,1.30
2018-12-09T23:46:07.289Z,1.63
2018-12-09T23:48:44.929Z,1.73
2018-12-09T23:57:06.541Z,1.20
